Time;durP1;ratioP1;P1;durP2;ratioP2;P2;SDS_P1;SDS_P2;PMS_P1;PMS_P2;Temp;Humidity;BMP_temperature;BMP_pressure;BME280_temperature;BME280_humidity;BME280_pressure;Samples;Min_cycle;Max_cycle;Signal;HPM_P1;HPM_P2
2022/04/22 00:00:44;;;;;;;7.30;6.03;;;;;;;8.58;97.58;99136.34;5040967;28;20200;-56
2022/04/22 00:03:10;;;;;;;5.97;5.37;;;;;;;8.54;97.16;99138.13;5039088;28;20353;-56
2022/04/22 00:05:35;;;;;;;5.80;5.30;;;;;;;8.51;97.49;99139.06;5036027;28;20213;-58
2022/04/22 00:08:01;;;;;;;8.27;5.90;;;;;;;8.50;97.90;99132.19;5032871;28;20210;-58
2022/04/22 00:10:27;;;;;;;5.97;5.37;;;;;;;8.47;97.83;99134.78;5036715;28;20258;-57
2022/04/22 00:12:53;;;;;;;6.40;5.70;;;;;;;8.43;98.27;99130.56;5040235;28;20221;-56
2022/04/22 00:15:20;;;;;;;6.70;6.10;;;;;;;8.42;98.60;99123.72;5039327;28;20202;-58
2022/04/22 00:17:46;;;;;;;6.67;6.00;;;;;;;8.40;98.69;99135.78;5033763;28;20346;-58
2022/04/22 00:20:12;;;;;;;7.07;6.40;;;;;;;8.36;98.77;99129.84;5024789;28;20193;-57
2022/04/22 00:22:40;;;;;;;6.50;6.00;;;;;;;8.35;98.82;99129.88;5038911;28;20193;-56
2022/04/22 00:25:11;;;;;;;7.33;6.70;;;;;;;8.31;99.02;99134.25;5040084;28;20208;-58
2022/04/22 00:27:37;;;;;;;7.67;6.97;;;;;;;8.34;98.97;99138.47;5042667;28;20214;-56
2022/04/22 00:30:08;;;;;;;7.47;6.80;;;;;;;8.33;99.22;99129.88;5019665;28;20657;-58
2022/04/22 00:32:34;;;;;;;7.53;6.83;;;;;;;8.32;99.67;99120.44;5030754;28;20198;-56
2022/04/22 00:35:00;;;;;;;8.57;7.63;;;;;;;8.33;99.72;99129.06;5042512;28;20244;-56
2022/04/22 00:37:25;;;;;;;8.93;8.13;;;;;;;8.31;100.00;99130.81;5038105;28;20210;-58
2022/04/22 00:39:51;;;;;;;10.17;7.83;;;;;;;8.28;100.00;99120.53;5038560;28;20232;-58
2022/04/22 00:42:17;;;;;;;8.67;7.87;;;;;;;8.25;100.00;99116.31;5034856;28;20704;-57
2022/04/22 00:44:42;;;;;;;9.50;8.60;;;;;;;8.24;100.00;99114.59;5032652;28;20264;-58
2022/04/22 00:47:07;;;;;;;10.20;9.30;;;;;;;8.21;100.00;99120.66;5034045;28;21081;-57
2022/04/22 00:49:33;;;;;;;11.17;9.10;;;;;;;8.25;100.00;99113.72;5036298;28;20196;-57
2022/04/22 00:51:58;;;;;;;10.70;9.80;;;;;;;8.23;100.00;99113.75;5041243;28;20199;-59
2022/04/22 00:54:25;;;;;;;11.97;9.77;;;;;;;8.21;100.00;99102.63;5038676;28;20208;-56
2022/04/22 00:56:51;;;;;;;11.27;10.37;;;;;;;8.21;100.00;99094.91;5038221;28;20208;-57
2022/04/22 00:59:17;;;;;;;12.00;10.23;;;;;;;8.17;100.00;99100.97;5034340;28;20275;-59
2022/04/22 01:01:43;;;;;;;11.83;10.77;;;;;;;8.18;100.00;99099.22;5026940;28;20184;-59
2022/04/22 01:09:49;;;;;;;12.60;11.30;;;;;;;8.11;100.00;99098.50;5045254;28;20209;-58
2022/04/22 01:12:18;;;;;;;15.90;12.17;;;;;;;8.12;100.00;99089.06;5034726;28;20199;-59
2022/04/22 01:14:45;;;;;;;13.07;11.87;;;;;;;8.09;100.00;99087.41;5043395;28;20672;-59
2022/04/22 01:17:11;;;;;;;12.90;11.70;;;;;;;8.09;100.00;99087.41;5045864;28;20188;-57
2022/04/22 01:19:37;;;;;;;13.53;11.30;;;;;;;8.11;100.00;99079.63;5044889;28;20201;-58
2022/04/22 01:22:02;;;;;;;12.40;11.30;;;;;;;8.07;100.00;99081.41;5039844;28;20189;-57
2022/04/22 01:24:28;;;;;;;11.90;10.90;;;;;;;8.07;100.00;99073.69;5038098;28;20223;-56
2022/04/22 01:26:55;;;;;;;12.47;11.27;;;;;;;8.12;100.00;99071.84;5043928;28;20191;-60
2022/04/22 01:29:21;;;;;;;13.07;11.20;;;;;;;8.08;100.00;99059.94;5017857;28;20188;-58
2022/04/22 01:31:47;;;;;;;11.47;10.37;;;;;;;8.03;100.00;99070.28;5039138;28;20674;-58
2022/04/22 01:34:13;;;;;;;12.73;11.53;;;;;;;8.00;100.00;99072.94;5037714;28;20189;-59
2022/04/22 01:36:38;;;;;;;12.17;11.07;;;;;;;7.98;100.00;99060.94;5020077;28;20187;-58
2022/04/22 01:39:03;;;;;;;12.10;10.90;;;;;;;7.99;100.00;99063.53;5033734;28;20202;-57
2022/04/22 01:41:29;;;;;;;11.80;10.80;;;;;;;7.93;100.00;99056.75;5025710;28;20720;-57
2022/04/22 01:43:55;;;;;;;12.13;10.93;;;;;;;7.93;100.00;99061.03;5036879;28;20214;-59
2022/04/22 01:46:20;;;;;;;12.50;11.30;;;;;;;7.91;100.00;99068.81;5036464;28;20232;-57
2022/04/22 01:48:46;;;;;;;11.93;10.73;;;;;;;7.87;100.00;99059.44;5040774;28;20216;-59
2022/04/22 01:51:11;;;;;;;12.90;11.70;;;;;;;7.85;100.00;99050.03;5035885;28;20198;-56
2022/04/22 01:53:36;;;;;;;13.33;12.13;;;;;;;7.83;100.00;99044.06;5036073;28;20192;-59
2022/04/22 01:56:03;;;;;;;14.00;12.60;;;;;;;7.79;100.00;99050.97;5035330;28;20208;-58
2022/04/22 01:58:28;;;;;;;13.23;12.00;;;;;;;7.73;100.00;99043.38;5024917;28;20610;-58
2022/04/22 02:00:56;;;;;;;14.00;12.70;;;;;;;7.68;100.00;99045.16;5040108;28;20257;-59
2022/04/22 02:03:22;;;;;;;14.50;13.13;;;;;;;7.66;100.00;99046.91;5039148;28;20189;-57
2022/04/22 02:05:47;;;;;;;14.97;13.47;;;;;;;7.60;100.00;99050.44;5038521;28;20223;-58
2022/04/22 02:08:13;;;;;;;13.63;12.43;;;;;;;7.60;100.00;99046.16;5032617;28;20212;-59
2022/04/22 02:10:40;;;;;;;15.00;13.40;;;;;;;7.53;100.00;99025.69;5040522;28;20276;-57
2022/04/22 02:13:07;;;;;;;14.77;13.37;;;;;;;7.51;100.00;99042.88;5038768;28;20266;-58
2022/04/22 02:15:32;;;;;;;15.17;13.67;;;;;;;7.48;100.00;99033.50;5039446;28;20690;-59
2022/04/22 02:17:57;;;;;;;16.30;14.70;;;;;;;7.50;100.00;99031.72;5043023;28;20232;-61
2022/04/22 02:20:23;;;;;;;15.87;14.37;;;;;;;7.46;100.00;99027.53;5050480;28;20225;-56
2022/04/22 02:22:48;;;;;;;17.40;15.63;;;;;;;7.44;100.00;99021.53;5038250;28;20273;-58
2022/04/22 02:25:13;;;;;;;15.87;14.20;;;;;;;7.40;100.00;99019.88;5040788;28;20223;-59
2022/04/22 02:30:23;;;;;;;16.60;15.00;;;;;;;7.33;100.00;99017.41;5035917;28;21595;-58
2022/04/22 02:32:49;;;;;;;16.80;15.17;;;;;;;7.30;100.00;99025.19;5041346;28;20201;-57
2022/04/22 02:35:14;;;;;;;17.10;15.43;;;;;;;7.25;100.00;99026.97;5037742;28;20220;-58
2022/04/22 02:37:40;;;;;;;17.53;15.60;;;;;;;7.24;100.00;99033.00;5036848;28;20270;-57
2022/04/22 02:40:06;;;;;;;18.20;16.30;;;;;;;7.25;100.00;99036.44;5035194;28;20192;-57
2022/04/22 02:45:27;;;;;;;18.20;16.40;;;;;;;7.22;100.00;99023.63;5038156;28;20270;-57
2022/04/22 02:47:53;;;;;;;17.83;16.17;;;;;;;7.20;100.00;99025.34;5042152;28;20228;-57
2022/04/22 02:50:18;;;;;;;18.77;16.87;;;;;;;7.14;100.00;99016.00;5035064;28;20195;-59
2022/04/22 02:52:44;;;;;;;17.80;16.17;;;;;;;7.07;100.00;99011.81;5037227;28;20184;-55
2022/04/22 02:55:09;;;;;;;18.00;16.10;;;;;;;7.01;100.00;99016.19;5036056;28;20235;-57
2022/04/22 02:57:34;;;;;;;18.07;16.37;;;;;;;6.93;100.00;99015.44;5029421;28;20184;-58
2022/04/22 03:00:01;;;;;;;19.57;17.67;;;;;;;6.86;100.00;99017.25;5035198;28;20194;-58
2022/04/22 03:02:29;;;;;;;19.80;17.80;;;;;;;6.83;100.00;99013.88;5023982;28;20667;-57
2022/04/22 03:04:54;;;;;;;20.80;18.70;;;;;;;6.81;100.00;99005.34;5040477;28;20224;-58
2022/04/22 03:07:20;;;;;;;20.67;18.47;;;;;;;6.78;100.00;99006.25;5036519;28;20275;-59
2022/04/22 03:09:45;;;;;;;20.00;18.00;;;;;;;6.76;100.00;99005.41;5019240;28;20198;-57
2022/04/22 03:12:13;;;;;;;21.27;19.03;;;;;;;6.76;100.00;99007.13;5043114;28;20196;-58
2022/04/22 03:14:39;;;;;;;21.03;18.93;;;;;;;6.74;100.00;99002.00;5038017;28;20208;-57
2022/04/22 03:17:06;;;;;;;22.27;19.97;;;;;;;6.71;100.00;99007.19;5033742;28;20295;-57
2022/04/22 03:19:31;;;;;;;20.30;18.30;;;;;;;6.64;100.00;99001.28;5039999;28;20280;-58
2022/04/22 03:21:57;;;;;;;23.67;20.37;;;;;;;6.66;100.00;98996.97;5038712;28;20280;-58
2022/04/22 03:24:23;;;;;;;22.53;20.30;;;;;;;6.65;100.00;98999.59;5040048;28;20733;-56
2022/04/22 03:26:48;;;;;;;22.73;20.43;;;;;;;6.60;100.00;99002.19;5023152;28;20274;-59
2022/04/22 03:29:14;;;;;;;23.33;20.87;;;;;;;6.56;100.00;98997.97;5030109;28;20288;-58
2022/04/22 03:31:40;;;;;;;23.33;20.83;;;;;;;6.56;100.00;98998.81;5044837;28;20218;-58
2022/04/22 03:34:05;;;;;;;23.10;20.77;;;;;;;6.55;100.00;99004.00;5040702;28;20195;-57
2022/04/22 03:36:31;;;;;;;23.37;21.13;;;;;;;6.58;100.00;98998.78;5032178;28;20208;-58
2022/04/22 03:38:56;;;;;;;25.50;22.83;;;;;;;6.60;100.00;99006.50;5034790;28;20199;-58
2022/04/22 03:41:21;;;;;;;23.50;21.00;;;;;;;6.58;100.00;99011.63;5036243;28;20212;-57
2022/04/22 03:43:47;;;;;;;24.53;22.03;;;;;;;6.52;100.00;99011.75;5036582;28;20183;-57
2022/04/22 03:46:12;;;;;;;26.30;23.50;;;;;;;6.53;100.00;99010.88;5036550;28;20219;-55
2022/04/22 03:48:38;;;;;;;24.80;22.30;;;;;;;6.47;100.00;99011.81;5032886;28;20226;-58
2022/04/22 03:51:03;;;;;;;26.80;24.20;;;;;;;6.46;100.00;99014.38;5033715;28;20191;-60
2022/04/22 03:53:28;;;;;;;26.40;23.67;;;;;;;6.42;100.00;99015.31;5036394;28;20194;-56
2022/04/22 03:55:54;;;;;;;25.53;23.03;;;;;;;6.42;100.00;99011.00;5032057;28;20223;-57
2022/04/22 03:58:19;;;;;;;25.43;22.93;;;;;;;6.38;100.00;99004.19;5036522;28;20200;-58
2022/04/22 04:00:48;;;;;;;25.23;22.60;;;;;;;6.35;100.00;99005.09;5039833;28;20302;-56
2022/04/22 04:03:15;;;;;;;24.83;22.33;;;;;;;6.32;100.00;99010.25;5037924;28;20195;-57
2022/04/22 04:05:46;;;;;;;24.77;22.23;;;;;;;6.33;100.00;99008.56;5043314;28;20675;-58
2022/04/22 04:08:11;;;;;;;27.53;24.87;;;;;;;6.27;100.00;98996.63;5034752;28;20256;-57
2022/04/22 04:16:05;;;;;;;27.67;24.77;;;;;;;6.22;100.00;99011.25;5033000;28;20224;-56
2022/04/22 04:18:35;;;;;;;26.97;24.20;;;;;;;6.22;100.00;99006.94;5039355;28;20197;-57
2022/04/22 04:23:46;;;;;;;27.03;24.43;;;;;;;6.15;100.00;99009.59;5037106;28;20205;-58
2022/04/22 04:26:15;;;;;;;26.67;24.07;;;;;;;6.15;100.00;99010.47;5032558;28;20216;-57
2022/04/22 04:28:41;;;;;;;31.53;26.77;;;;;;;6.18;100.00;99012.13;5039019;28;20297;-57
2022/04/22 04:31:06;;;;;;;29.87;25.93;;;;;;;6.17;100.00;99013.88;5044947;28;20303;-56
2022/04/22 04:33:32;;;;;;;28.03;25.10;;;;;;;6.14;100.00;99013.91;5039118;28;20194;-58
2022/04/22 04:35:58;;;;;;;26.97;24.10;;;;;;;6.14;100.00;99020.75;5045040;28;20247;-59
2022/04/22 04:38:25;;;;;;;27.53;24.63;;;;;;;6.16;100.00;99024.16;5044009;28;20183;-57
2022/04/22 04:40:51;;;;;;;28.17;25.27;;;;;;;6.15;100.00;99019.88;5048961;28;20199;-58
2022/04/22 04:43:18;;;;;;;27.30;24.57;;;;;;;6.17;100.00;99021.59;5043433;28;20187;-56
2022/04/22 04:45:44;;;;;;;27.67;24.73;;;;;;;6.21;100.00;99022.38;5041057;28;20214;-58
2022/04/22 04:48:10;;;;;;;27.10;24.10;;;;;;;6.21;100.00;99018.09;5043991;28;20251;-58
2022/04/22 04:50:35;;;;;;;27.10;24.30;;;;;;;6.25;100.00;99019.75;5042459;28;20190;-59
2022/04/22 04:53:00;;;;;;;27.10;24.43;;;;;;;6.29;100.00;99025.69;5039363;28;20192;-57
2022/04/22 04:55:27;;;;;;;26.03;23.43;;;;;;;6.32;100.00;99033.38;5040555;28;20663;-57
2022/04/22 04:57:52;;;;;;;27.20;24.40;;;;;;;6.40;100.00;99028.16;5039061;28;20589;-56
2022/04/22 05:00:21;;;;;;;27.37;24.47;;;;;;;6.45;100.00;99023.81;5045107;28;20183;-58
2022/04/22 05:02:47;;;;;;;26.37;23.67;;;;;;;6.46;100.00;99016.94;5047768;28;20276;-57
2022/04/22 05:05:12;;;;;;;25.97;23.33;;;;;;;6.49;100.00;99020.34;5047546;28;21435;-56
2022/04/22 05:07:57;;;;;;;27.27;24.60;;;;;;;6.55;100.00;99017.69;5047228;28;20226;-57
2022/04/22 05:10:24;;;;;;;27.97;25.17;;;;;;;6.62;100.00;99020.19;5044533;28;20240;-57
2022/04/22 05:12:50;;;;;;;27.57;24.57;;;;;;;6.69;100.00;99017.50;5043577;28;20198;-55
2022/04/22 05:15:17;;;;;;;29.83;25.17;;;;;;;6.73;100.00;99015.75;5044109;28;20592;-57
2022/04/22 05:17:44;;;;;;;26.43;23.83;;;;;;;6.86;100.00;99019.84;5045209;28;20209;-56
2022/04/22 05:20:15;;;;;;;27.00;24.20;;;;;;;6.93;100.00;99018.03;5045659;28;20191;-58
2022/04/22 05:22:41;;;;;;;28.37;25.33;;;;;;;6.94;100.00;99013.75;5043202;28;20183;-56
2022/04/22 05:25:10;;;;;;;26.83;24.10;;;;;;;7.00;100.00;99023.94;5045343;28;20211;-59
2022/04/22 05:27:36;;;;;;;26.80;24.10;;;;;;;7.20;100.00;99020.22;5026944;28;20214;-57
2022/04/22 05:32:47;;;;;;;26.47;23.57;;;;;;;7.82;100.00;99009.72;5040513;28;20209;-58
2022/04/22 05:35:15;;;;;;;24.27;21.77;;;;;;;8.22;100.00;99021.00;5039415;28;20212;-59
2022/04/22 05:37:57;;;;;;;27.53;21.60;;;;;;;8.64;100.00;99022.75;5025870;28;20183;-57
2022/04/22 05:40:28;;;;;;;28.27;21.93;;;;;;;8.76;100.00;99013.91;5043911;28;20188;-59
2022/04/22 05:42:54;;;;;;;25.97;21.57;;;;;;;8.90;100.00;99016.16;5035373;28;20197;-57
2022/04/22 05:45:20;;;;;;;22.97;20.37;;;;;;;9.10;100.00;99014.00;5041797;28;20221;-57
2022/04/22 05:47:46;;;;;;;21.60;19.50;;;;;;;9.50;100.00;99007.00;5044406;28;20251;-57
2022/04/22 05:50:14;;;;;;;21.73;19.47;;;;;;;9.70;98.92;99015.97;5043682;28;20190;-58
2022/04/22 05:52:41;;;;;;;23.80;20.47;;;;;;;10.09;97.90;99015.81;5038946;28;20229;-57
2022/04/22 05:55:08;;;;;;;22.43;20.13;;;;;;;10.14;96.26;99016.50;5041160;28;20258;-58
2022/04/22 05:57:34;;;;;;;21.13;18.80;;;;;;;10.41;95.39;99016.69;5026904;28;20864;-57
2022/04/22 06:00:03;;;;;;;27.87;20.20;;;;;;;10.57;93.98;99022.25;5045503;28;20191;-58
2022/04/22 06:02:29;;;;;;;23.17;19.63;;;;;;;10.67;92.75;99012.47;5042522;28;20194;-58
2022/04/22 06:04:54;;;;;;;20.97;18.77;;;;;;;11.08;92.21;99017.28;5046840;28;20214;-59
2022/04/22 06:07:20;;;;;;;22.40;19.53;;;;;;;11.03;91.69;99013.97;5023404;28;20206;-58
2022/04/22 06:12:30;;;;;;;21.77;19.63;;;;;;;11.40;90.75;99002.44;5039994;28;20923;-57
2022/04/22 06:14:59;;;;;;;22.13;19.93;;;;;;;11.68;89.74;98998.94;5007181;28;20230;-59
2022/04/22 06:17:29;;;;;;;22.37;20.07;;;;;;;12.14;88.04;98994.75;5040859;28;20182;-58
2022/04/22 06:19:55;;;;;;;24.37;21.17;;;;;;;12.08;87.59;98997.56;5043552;28;20210;-58
2022/04/22 06:22:20;;;;;;;23.27;20.87;;;;;;;12.08;87.67;99002.75;5048378;28;20584;-59
2022/04/22 06:24:46;;;;;;;24.50;22.00;;;;;;;11.90;87.42;98989.50;5042137;28;20231;-59
2022/04/22 06:27:11;;;;;;;24.27;21.77;;;;;;;12.27;87.21;98989.09;5038633;28;20214;-58
2022/04/22 06:29:37;;;;;;;22.93;20.53;;;;;;;12.51;86.13;98987.34;5050281;28;20274;-58
2022/04/22 06:32:03;;;;;;;23.27;20.80;;;;;;;12.75;84.78;99002.88;5042892;28;20686;-58
2022/04/22 06:34:29;;;;;;;23.27;20.83;;;;;;;12.65;84.67;99000.66;5043276;28;20202;-58
2022/04/22 06:36:54;;;;;;;23.57;21.37;;;;;;;12.70;84.94;98997.88;5045949;28;20708;-58
2022/04/22 06:39:20;;;;;;;24.47;22.13;;;;;;;12.25;85.63;98993.50;5049981;28;20191;-58
2022/04/22 06:47:27;;;;;;;22.40;20.07;;;;;;;13.75;81.87;98987.63;5027829;28;20281;-55
2022/04/22 06:49:53;;;;;;;22.90;20.80;;;;;;;14.07;80.65;98984.53;5044718;28;20192;-59
2022/04/22 06:52:19;;;;;;;21.77;19.73;;;;;;;14.18;79.90;98988.34;5040247;28;20602;-58
2022/04/22 06:54:45;;;;;;;21.57;19.37;;;;;;;14.55;78.65;98991.03;5038639;28;20306;-57
2022/04/22 06:57:11;;;;;;;21.27;19.37;;;;;;;14.75;77.31;98986.66;5040585;28;20623;-58
2022/04/22 06:59:37;;;;;;;21.10;19.10;;;;;;;15.23;76.58;98985.22;5039046;28;20280;-58
2022/04/22 07:02:02;;;;;;;21.17;19.17;;;;;;;15.35;76.56;98991.59;5037976;28;20555;-59
2022/04/22 07:04:28;;;;;;;23.23;21.03;;;;;;;14.97;75.70;98990.84;5045559;28;20750;-59
2022/04/22 07:06:53;;;;;;;21.20;19.30;;;;;;;15.07;75.96;98992.94;5041907;28;20702;-58
2022/04/22 07:09:19;;;;;;;21.80;19.73;;;;;;;15.32;75.89;98983.91;5041336;28;20203;-57
2022/04/22 07:11:45;;;;;;;21.13;19.07;;;;;;;15.10;76.03;98994.56;5042103;28;20833;-59
2022/04/22 07:14:11;;;;;;;22.53;20.27;;;;;;;14.75;75.72;98984.06;5036366;28;20190;-58
2022/04/22 07:16:44;;;;;;;22.83;20.73;;;;;;;14.03;77.84;98971.66;5038226;28;20685;-59
2022/04/22 07:19:10;;;;;;;22.03;19.93;;;;;;;13.75;79.28;98969.44;5040840;28;20248;-59
2022/04/22 07:21:36;;;;;;;21.50;19.37;;;;;;;13.64;79.58;98971.63;5026126;28;20188;-59
2022/04/22 07:24:02;;;;;;;22.83;20.63;;;;;;;13.05;81.73;98968.81;5046153;28;20190;-57
2022/04/22 07:26:29;;;;;;;21.73;19.73;;;;;;;13.51;80.76;98976.50;5035430;28;20208;-58
2022/04/22 07:28:57;;;;;;;23.27;20.97;;;;;;;13.54;79.42;98964.22;5042884;28;20223;-57
2022/04/22 07:31:23;;;;;;;23.77;21.57;;;;;;;13.21;82.03;98966.47;5035820;28;20189;-58
2022/04/22 07:33:53;;;;;;;23.67;21.17;;;;;;;13.49;80.82;98957.53;5036066;28;20194;-59
2022/04/22 07:36:18;;;;;;;23.53;21.27;;;;;;;13.48;80.86;98956.69;5036264;28;20206;-57
2022/04/22 07:38:44;;;;;;;23.83;21.53;;;;;;;13.03;82.06;98957.63;5033760;28;20203;-57
2022/04/22 07:41:11;;;;;;;22.67;20.47;;;;;;;12.90;82.39;98955.53;5039240;28;20192;-56
2022/04/22 07:49:07;;;;;;;23.37;21.10;;;;;;;13.06;82.19;98947.13;5037908;28;20230;-59
2022/04/22 07:51:33;;;;;;;23.90;21.50;;;;;;;13.04;82.51;98946.34;5035980;28;20193;-58
2022/04/22 07:53:58;;;;;;;21.10;19.20;;;;;;;13.19;82.23;98948.31;5044877;28;20219;-58
2022/04/22 07:56:24;;;;;;;22.60;20.50;;;;;;;13.32;81.75;98946.06;5039033;28;20213;-58
2022/04/22 07:58:50;;;;;;;24.20;21.90;;;;;;;13.33;81.61;98934.75;5026308;28;20217;-56
2022/04/22 08:01:15;;;;;;;22.10;20.00;;;;;;;13.55;81.00;98947.72;5037803;28;20309;-57
2022/04/22 08:03:41;;;;;;;24.63;22.27;;;;;;;13.34;81.78;98951.19;5042330;28;20279;-59
2022/04/22 08:06:06;;;;;;;23.80;21.50;;;;;;;13.06;82.77;98954.94;5017985;28;20243;-60
2022/04/22 08:08:32;;;;;;;23.10;20.97;;;;;;;12.87;82.64;98944.44;5032737;28;20220;-58
2022/04/22 08:10:58;;;;;;;23.27;20.90;;;;;;;12.87;83.33;98952.22;5037591;28;20309;-58
2022/04/22 08:13:26;;;;;;;24.57;22.30;;;;;;;12.59;83.42;98930.78;5037946;28;20229;-59
2022/04/22 08:15:51;;;;;;;23.40;21.10;;;;;;;12.83;83.21;98940.28;5037425;28;20211;-57
2022/04/22 08:18:17;;;;;;;23.90;21.63;;;;;;;12.71;84.23;98933.81;5037254;28;20234;-59
2022/04/22 08:20:42;;;;;;;23.20;21.00;;;;;;;12.63;84.17;98929.78;5038796;28;20219;-57
2022/04/22 08:23:07;;;;;;;23.23;20.93;;;;;;;12.75;84.13;98938.84;5039776;28;20282;-59
2022/04/22 08:25:32;;;;;;;23.80;21.50;;;;;;;12.69;84.71;98931.28;5043450;28;20272;-59
2022/04/22 08:27:58;;;;;;;23.27;21.03;;;;;;;12.57;84.12;98931.78;5039480;28;20246;-59
2022/04/22 08:30:23;;;;;;;23.67;21.33;;;;;;;12.49;85.38;98924.28;5036106;28;20196;-59
2022/04/22 08:32:49;;;;;;;23.90;21.60;;;;;;;12.35;84.83;98922.19;5039115;28;20187;-58
2022/04/22 08:35:14;;;;;;;23.60;21.30;;;;;;;12.52;85.31;98926.75;5043414;28;20203;-57
2022/04/22 08:37:44;;;;;;;24.57;21.97;;;;;;;12.53;85.06;98930.19;5039671;28;20526;-58
2022/04/22 08:40:09;;;;;;;23.53;21.37;;;;;;;12.52;85.15;98939.75;5039807;28;20195;-59
2022/04/22 08:42:39;;;;;;;24.53;22.03;;;;;;;12.39;85.46;98921.19;5038855;28;20192;-57
2022/04/22 08:45:06;;;;;;;24.33;21.93;;;;;;;12.33;85.92;98929.19;5023708;28;20222;-58
2022/04/22 08:50:19;;;;;;;24.07;21.57;;;;;;;12.37;85.96;98922.16;5037334;28;20256;-57
2022/04/22 08:52:56;;;;;;;24.37;21.77;;;;;;;12.37;85.62;98915.22;5037713;28;20198;-56
2022/04/22 08:55:22;;;;;;;23.73;21.00;;;;;;;12.32;86.50;98932.72;5033105;28;20288;-59
2022/04/22 08:57:49;;;;;;;22.90;20.60;;;;;;;12.42;86.25;98925.41;5041569;28;20187;-59
2022/04/22 09:00:15;;;;;;;24.40;22.03;;;;;;;12.55;85.12;98911.09;5038088;28;20195;-57
2022/04/22 09:02:40;;;;;;;26.60;21.97;;;;;;;12.63;85.53;98913.34;5036136;28;20252;-57
2022/04/22 09:05:08;;;;;;;22.17;20.13;;;;;;;12.91;84.27;98912.25;5036590;28;20246;-58
2022/04/22 09:07:34;;;;;;;22.13;20.13;;;;;;;12.86;85.25;98927.16;5036363;28;20208;-58
2022/04/22 09:10:01;;;;;;;22.37;20.03;;;;;;;12.75;84.28;98910.28;5042138;28;20709;-59
2022/04/22 09:12:27;;;;;;;23.23;20.97;;;;;;;12.80;83.79;98905.72;5042319;28;20249;-58
2022/04/22 09:14:54;;;;;;;21.93;19.83;;;;;;;12.80;84.86;98912.69;5040261;28;20673;-58
2022/04/22 09:17:33;;;;;;;23.30;20.97;;;;;;;12.85;84.23;98902.13;5023218;28;20196;-58
2022/04/22 09:19:59;;;;;;;21.30;19.30;;;;;;;12.77;83.87;98903.28;5043541;28;20196;-58
2022/04/22 09:22:26;;;;;;;24.30;20.17;;;;;;;12.65;84.56;98909.81;5030196;28;20282;-57
2022/04/22 09:24:56;;;;;;;22.23;20.13;;;;;;;12.62;83.69;98903.91;5042715;28;20262;-58
2022/04/22 09:27:35;;;;;;;22.37;20.30;;;;;;;12.64;83.91;98894.28;5037728;28;20204;-56
2022/04/22 09:30:02;;;;;;;21.53;19.60;;;;;;;12.74;84.08;98892.16;5040615;28;20204;-59
2022/04/22 09:32:29;;;;;;;21.93;19.23;;;;;;;12.86;84.03;98883.88;5046673;28;20197;-58
2022/04/22 09:35:13;;;;;;;21.30;19.10;;;;;;;13.07;82.44;98873.50;5024323;28;20228;-59
2022/04/22 09:43:49;;;;;;;21.20;19.10;;;;;;;13.29;83.80;98870.00;5024658;28;20203;-59
2022/04/22 09:46:32;;;;;;;20.10;18.17;;;;;;;13.43;82.17;98869.44;5042663;28;20232;-56
2022/04/22 09:48:59;;;;;;;18.50;16.80;;;;;;;13.44;82.10;98863.31;5045013;28;20619;-57
2022/04/22 09:51:27;;;;;;;18.30;16.70;;;;;;;13.56;81.26;98860.19;5040194;28;20195;-58
2022/04/22 09:54:02;;;;;;;20.17;18.23;;;;;;;13.59;80.63;98854.03;5041000;28;20224;-57
2022/04/22 09:56:28;;;;;;;20.03;17.90;;;;;;;13.65;80.79;98852.00;5038320;28;20225;-58
2022/04/22 09:58:54;;;;;;;19.70;17.70;;;;;;;13.61;79.91;98849.59;5044723;28;20196;-57
2022/04/22 10:01:19;;;;;;;18.73;17.03;;;;;;;13.61;80.39;98854.81;5041543;28;20223;-56
2022/04/22 10:03:48;;;;;;;20.67;18.63;;;;;;;13.79;80.96;98842.72;5021965;28;20288;-57
2022/04/22 10:06:13;;;;;;;18.27;16.57;;;;;;;13.80;80.87;98844.41;5042282;28;20616;-57
2022/04/22 10:08:40;;;;;;;18.77;17.07;;;;;;;13.86;80.44;98838.91;5037876;28;20244;-57
2022/04/22 10:11:07;;;;;;;18.80;17.10;;;;;;;14.07;80.36;98846.66;5044711;28;20546;-55
2022/04/22 10:13:44;;;;;;;19.00;17.20;;;;;;;13.96;79.10;98844.53;5045004;28;20280;-57
2022/04/22 10:16:12;;;;;;;17.43;15.70;;;;;;;14.11;79.98;98841.22;5040077;28;20624;-56
2022/04/22 10:18:39;;;;;;;18.03;16.50;;;;;;;14.29;79.61;98839.50;5018912;28;20323;-57
2022/04/22 10:21:06;;;;;;;19.10;17.30;;;;;;;14.21;78.92;98830.41;5034791;28;20197;-57
2022/04/22 10:23:32;;;;;;;16.90;15.40;;;;;;;14.30;79.78;98836.00;5037652;28;20203;-57
2022/04/22 10:25:58;;;;;;;17.70;16.10;;;;;;;14.42;79.05;98826.75;5025248;28;20214;-57
2022/04/22 10:28:24;;;;;;;16.63;15.23;;;;;;;14.61;78.20;98820.66;5034258;28;20676;-58
2022/04/22 10:30:53;;;;;;;17.30;15.70;;;;;;;14.74;77.52;98821.78;5038394;28;20187;-57
2022/04/22 10:33:23;;;;;;;16.07;14.37;;;;;;;14.87;77.82;98828.97;5023464;28;20182;-57
2022/04/22 10:35:56;;;;;;;17.77;16.07;;;;;;;14.66;77.07;98823.03;5042985;28;20316;-55
2022/04/22 10:38:35;;;;;;;17.53;15.80;;;;;;;14.71;77.53;98816.72;5040968;28;20185;-57
2022/04/22 10:41:02;;;;;;;17.30;15.73;;;;;;;14.81;76.46;98821.47;5039593;28;20193;-57
2022/04/22 10:43:28;;;;;;;17.67;16.00;;;;;;;14.85;77.33;98833.41;5037332;28;20822;-57
2022/04/22 10:48:40;;;;;;;16.67;15.17;;;;;;;15.16;75.61;98824.91;5040460;28;20722;-57
2022/04/22 10:51:09;;;;;;;38.00;18.97;;;;;;;15.07;75.42;98821.00;5041040;28;20179;-55
2022/04/22 10:53:48;;;;;;;16.33;14.83;;;;;;;14.98;75.43;98808.41;5038309;28;20191;-57
2022/04/22 10:56:26;;;;;;;17.77;15.27;;;;;;;15.06;75.50;98818.44;5038964;28;20376;-56
2022/04/22 11:01:31;;;;;;;14.97;13.67;;;;;;;15.32;76.18;98793.66;5131434;23;20241;-58
2022/04/22 11:03:56;;;;;;;18.30;15.00;;;;;;;15.39;76.18;98794.16;5041627;28;20197;-57
2022/04/22 11:06:22;;;;;;;16.67;15.17;;;;;;;15.34;74.91;98788.38;5040346;28;20179;-58
2022/04/22 11:09:02;;;;;;;16.50;15.00;;;;;;;15.45;75.32;98786.03;5036960;28;20304;-59
2022/04/22 11:11:38;;;;;;;15.30;13.90;;;;;;;15.43;75.56;98785.28;5017885;28;20278;-58
2022/04/22 11:14:18;;;;;;;15.13;13.63;;;;;;;15.44;74.67;98780.88;5018234;28;20187;-58
2022/04/22 11:16:43;;;;;;;19.37;15.70;;;;;;;15.46;74.84;98781.66;5018618;28;20560;-57
2022/04/22 11:19:17;;;;;;;23.23;14.90;;;;;;;15.39;74.25;98768.09;5023787;28;20241;-57
2022/04/22 11:21:44;;;;;;;14.50;13.03;;;;;;;15.50;74.18;98781.41;5017903;28;20190;-58
2022/04/22 11:24:15;;;;;;;14.33;12.93;;;;;;;15.61;74.89;98774.78;5020483;28;20192;-58
2022/04/22 11:26:42;;;;;;;15.33;13.90;;;;;;;15.82;74.25;98780.59;5016031;28;20179;-58
2022/04/22 11:29:09;;;;;;;14.77;13.20;;;;;;;15.91;73.93;98772.28;5019986;28;20223;-58
2022/04/22 11:31:35;;;;;;;15.47;13.57;;;;;;;15.84;73.30;98770.91;5024619;28;20211;-58
2022/04/22 11:34:07;;;;;;;14.83;13.47;;;;;;;15.84;73.02;98792.63;5018724;28;20186;-57
2022/04/22 11:36:46;;;;;;;15.93;14.33;;;;;;;15.94;72.97;98766.91;5034464;28;20197;-58
2022/04/22 11:39:19;;;;;;;14.57;13.17;;;;;;;16.05;72.74;98773.28;5015553;28;20650;-58
2022/04/22 11:41:59;;;;;;;14.97;13.30;;;;;;;15.99;73.38;98771.84;5017999;28;20274;-59
2022/04/22 11:44:25;;;;;;;14.70;13.40;;;;;;;16.10;73.21;98766.91;5017374;28;20562;-57
2022/04/22 11:46:54;;;;;;;15.03;13.03;;;;;;;16.25;72.89;98762.56;5018511;28;20213;-58
2022/04/22 11:49:20;;;;;;;14.30;13.00;;;;;;;16.34;73.89;98771.66;5020302;28;20207;-58
2022/04/22 11:51:51;;;;;;;14.47;13.17;;;;;;;16.36;73.14;98751.50;5019414;28;20189;-56
2022/04/22 11:54:26;;;;;;;14.10;12.80;;;;;;;16.37;72.45;98755.81;5021079;28;20935;-57
2022/04/22 11:56:53;;;;;;;32.90;15.13;;;;;;;16.38;72.21;98774.91;5018932;28;20973;-56
2022/04/22 11:59:20;;;;;;;12.07;10.97;;;;;;;16.48;72.90;98757.81;5015802;28;20266;-57
2022/04/22 12:10:04;;;;;;;17.27;14.43;;;;;;;16.83;71.52;98743.59;5019719;28;20239;-58
2022/04/22 12:12:33;;;;;;;15.10;13.57;;;;;;;16.63;71.92;98737.78;5017658;28;20199;-57
2022/04/22 12:15:00;;;;;;;15.43;14.13;;;;;;;16.59;72.03;98741.50;5018020;28;20222;-56
2022/04/22 12:17:26;;;;;;;15.03;13.63;;;;;;;16.52;71.23;98748.00;5018041;28;20605;-56